createdAt,value
2018-05-15T00:01:49.188Z,8.30
2018-05-15T00:04:16.692Z,10.50
2018-05-15T00:06:43.459Z,8.07
2018-05-15T00:09:10.282Z,18.67
2018-05-15T00:11:37.078Z,12.90
2018-05-15T00:14:03.866Z,10.30
2018-05-15T00:16:31.212Z,9.50
2018-05-15T00:18:58.201Z,11.43
2018-05-15T00:21:24.982Z,11.67
2018-05-15T00:23:51.792Z,13.30
2018-05-15T00:26:18.602Z,11.17
2018-05-15T00:28:45.372Z,10.50
2018-05-15T00:31:12.264Z,11.73
2018-05-15T00:33:38.954Z,12.03
2018-05-15T00:36:05.750Z,10.73
2018-05-15T00:38:33.106Z,8.57
2018-05-15T00:40:59.889Z,7.57
2018-05-15T00:43:26.665Z,8.33
2018-05-15T00:45:53.639Z,17.40
2018-05-15T00:48:20.491Z,9.30
2018-05-15T00:50:47.249Z,9.40
2018-05-15T00:53:14.021Z,13.43
2018-05-15T00:55:44.255Z,9.83
2018-05-15T00:58:11.694Z,11.43
2018-05-15T01:00:38.520Z,10.43
2018-05-15T01:03:05.287Z,10.70
2018-05-15T01:05:32.048Z,8.47
2018-05-15T01:07:58.845Z,8.27
2018-05-15T01:10:25.592Z,11.07
2018-05-15T01:12:53.253Z,9.13
2018-05-15T01:15:20.053Z,10.20
2018-05-15T01:17:47.524Z,10.57
2018-05-15T01:20:14.278Z,13.97
2018-05-15T01:22:51.695Z,8.00
2018-05-15T01:25:19.028Z,11.30
2018-05-15T01:27:45.853Z,11.77
2018-05-15T01:30:12.608Z,9.37
2018-05-15T01:32:39.384Z,9.73
2018-05-15T01:35:06.171Z,9.03
2018-05-15T01:37:33.005Z,9.53
2018-05-15T01:39:59.798Z,9.53
2018-05-15T01:42:26.587Z,8.30
2018-05-15T01:44:53.360Z,15.27
2018-05-15T01:47:20.130Z,9.53
2018-05-15T01:49:46.881Z,9.87
2018-05-15T01:52:14.677Z,9.80
2018-05-15T01:54:41.465Z,10.50
2018-05-15T01:57:08.824Z,10.67
2018-05-15T01:59:35.682Z,8.37
2018-05-15T02:02:03.397Z,12.27
2018-05-15T02:04:30.197Z,10.50
2018-05-15T02:06:56.996Z,10.43
2018-05-15T02:09:24.689Z,8.23
2018-05-15T02:11:51.608Z,10.70
2018-05-15T02:14:18.382Z,9.20
2018-05-15T02:16:45.692Z,9.27
2018-05-15T02:19:12.492Z,10.43
2018-05-15T02:21:39.288Z,9.37
2018-05-15T02:24:06.092Z,7.87
2018-05-15T02:26:33.771Z,10.23
2018-05-15T02:29:01.484Z,8.57
2018-05-15T02:31:28.875Z,11.20
2018-05-15T02:33:55.634Z,11.77
2018-05-15T02:36:23.206Z,11.93
2018-05-15T02:38:50.005Z,10.30
2018-05-15T02:41:16.813Z,11.53
2018-05-15T02:43:44.280Z,11.80
2018-05-15T02:46:11.050Z,9.50
2018-05-15T02:48:37.825Z,11.20
2018-05-15T02:51:04.635Z,10.77
2018-05-15T02:53:31.426Z,11.13
2018-05-15T02:55:58.197Z,10.93
2018-05-15T02:58:24.975Z,8.63
2018-05-15T03:00:51.733Z,13.80
2018-05-15T03:03:19.226Z,10.40
2018-05-15T03:05:46.000Z,13.07
2018-05-15T03:08:12.788Z,13.97
2018-05-15T03:10:39.563Z,11.20
2018-05-15T03:13:06.318Z,12.97
2018-05-15T03:15:33.085Z,10.97
2018-05-15T03:17:59.881Z,11.43
2018-05-15T03:20:26.652Z,9.90
2018-05-15T03:22:53.463Z,10.03
2018-05-15T03:25:20.950Z,15.83
2018-05-15T03:27:47.701Z,14.07
2018-05-15T03:30:14.473Z,10.37
2018-05-15T03:32:41.256Z,12.03
2018-05-15T03:35:08.716Z,12.03
2018-05-15T03:37:36.178Z,14.47
2018-05-15T03:40:02.968Z,12.20
2018-05-15T03:42:29.789Z,10.70
2018-05-15T03:44:56.630Z,14.27
2018-05-15T03:47:23.421Z,12.60
2018-05-15T03:49:50.193Z,15.40
2018-05-15T03:52:17.031Z,9.23
2018-05-15T03:54:43.863Z,11.00
2018-05-15T03:57:10.617Z,12.30
2018-05-15T03:59:37.457Z,11.40
2018-05-15T04:02:10.318Z,9.43
2018-05-15T04:04:43.029Z,33.27
2018-05-15T04:07:16.270Z,18.37
2018-05-15T04:09:43.729Z,12.53
2018-05-15T04:12:10.697Z,14.33
2018-05-15T04:14:37.471Z,12.30
2018-05-15T04:17:04.880Z,14.07
2018-05-15T04:19:32.430Z,11.13
2018-05-15T04:21:59.181Z,12.97
2018-05-15T04:24:25.987Z,12.73
2018-05-15T04:26:52.754Z,11.13
2018-05-15T04:29:20.152Z,8.77
2018-05-15T04:31:47.721Z,10.07
2018-05-15T04:34:14.510Z,16.87
2018-05-15T04:36:41.256Z,9.63
2018-05-15T04:39:07.993Z,9.30
2018-05-15T04:41:34.744Z,13.27
2018-05-15T04:44:01.678Z,13.60
2018-05-15T04:46:28.683Z,11.63
2018-05-15T04:48:56.333Z,9.73
2018-05-15T04:51:23.214Z,8.83
2018-05-15T04:53:50.471Z,17.00
2018-05-15T04:56:17.284Z,10.23
2018-05-15T04:58:44.819Z,9.43
2018-05-15T05:01:22.309Z,10.53
2018-05-15T05:03:49.431Z,8.83
2018-05-15T05:06:16.289Z,13.97
2018-05-15T05:08:43.567Z,12.10
2018-05-15T05:11:11.033Z,14.13
2018-05-15T05:13:38.281Z,15.70
2018-05-15T05:16:06.164Z,10.20
2018-05-15T05:18:33.028Z,11.80
2018-05-15T05:21:01.280Z,12.23
2018-05-15T05:23:28.007Z,8.57
2018-05-15T05:25:58.208Z,13.60
2018-05-15T05:28:25.058Z,9.87
2018-05-15T05:30:52.474Z,15.60
2018-05-15T05:33:19.742Z,14.70
2018-05-15T05:35:47.906Z,14.23
2018-05-15T05:38:15.914Z,12.00
2018-05-15T05:40:43.766Z,13.23
2018-05-15T05:43:11.006Z,14.83
2018-05-15T05:45:37.893Z,15.77
2018-05-15T05:48:04.924Z,13.43
2018-05-15T05:50:31.838Z,11.97
2018-05-15T05:52:58.910Z,10.90
2018-05-15T05:55:26.554Z,14.43
2018-05-15T05:57:53.431Z,11.93
2018-05-15T06:00:20.311Z,14.77
2018-05-15T06:02:47.424Z,13.07
2018-05-15T06:05:14.320Z,12.97
2018-05-15T06:07:43.019Z,12.87
2018-05-15T06:10:11.502Z,14.23
2018-05-15T06:12:38.394Z,14.83
2018-05-15T06:15:05.413Z,15.27
2018-05-15T06:17:32.338Z,15.37
2018-05-15T06:20:00.607Z,12.17
2018-05-15T06:22:28.496Z,14.27
2018-05-15T06:24:56.369Z,12.97
2018-05-15T06:27:23.294Z,13.37
2018-05-15T06:29:50.090Z,17.17
2018-05-15T06:32:16.967Z,17.53
2018-05-15T06:34:44.542Z,12.60
2018-05-15T06:37:11.338Z,27.53
2018-05-15T06:39:38.229Z,18.47
2018-05-15T06:42:08.589Z,15.27
2018-05-15T06:44:36.171Z,13.77
2018-05-15T06:47:02.959Z,17.37
2018-05-15T06:49:39.725Z,20.43
2018-05-15T06:52:06.531Z,16.83
2018-05-15T06:54:34.176Z,13.30
2018-05-15T06:57:01.297Z,12.43
2018-05-15T06:59:29.032Z,14.90
2018-05-15T07:01:56.069Z,18.37
2018-05-15T07:04:23.756Z,15.57
2018-05-15T07:06:50.565Z,13.33
2018-05-15T07:22:18.643Z,14.00
2018-05-15T07:24:45.387Z,15.07
2018-05-15T07:27:12.168Z,13.40
2018-05-15T07:29:38.935Z,16.27
2018-05-15T07:32:05.674Z,16.97
2018-05-15T07:34:32.423Z,12.17
2018-05-15T07:36:59.367Z,11.23
2018-05-15T07:39:26.113Z,12.13
2018-05-15T07:41:52.856Z,12.97
2018-05-15T07:44:19.627Z,19.63
2018-05-15T07:46:46.373Z,14.77
2018-05-15T07:49:13.129Z,11.87
2018-05-15T07:51:39.891Z,12.77
2018-05-15T07:54:06.645Z,11.20
2018-05-15T07:56:33.406Z,11.43
2018-05-15T07:59:00.147Z,14.37
2018-05-15T08:01:26.973Z,11.57
2018-05-15T08:03:53.792Z,13.97
2018-05-15T08:06:20.537Z,12.00
2018-05-15T08:08:48.469Z,11.47
2018-05-15T08:11:16.035Z,9.40
2018-05-15T08:13:43.493Z,11.87
2018-05-15T08:16:11.293Z,5.97
2018-05-15T08:18:39.507Z,9.30
2018-05-15T08:21:07.400Z,7.83
2018-05-15T08:23:34.311Z,8.47
2018-05-15T08:26:01.098Z,8.47
2018-05-15T08:28:37.855Z,8.67
2018-05-15T08:31:05.647Z,9.60
2018-05-15T08:33:33.087Z,7.80
2018-05-15T08:36:00.552Z,6.47
2018-05-15T08:38:27.426Z,7.73
2018-05-15T08:40:54.375Z,6.73
2018-05-15T08:43:21.691Z,8.53
2018-05-15T08:45:48.569Z,6.13
2018-05-15T08:48:15.339Z,7.43
2018-05-15T08:50:43.594Z,5.57
2018-05-15T08:53:10.354Z,7.33
2018-05-15T08:55:37.189Z,7.27
2018-05-15T08:58:03.975Z,8.10
2018-05-15T09:00:30.819Z,5.73
2018-05-15T09:02:57.626Z,6.17
2018-05-15T09:05:24.393Z,6.07
2018-05-15T09:07:51.174Z,9.03
2018-05-15T09:10:18.832Z,5.67
2018-05-15T09:12:45.651Z,7.43
2018-05-15T09:15:12.412Z,4.73
2018-05-15T09:17:39.172Z,5.00
2018-05-15T09:20:15.891Z,6.17
2018-05-15T09:22:42.827Z,5.10
2018-05-15T09:25:10.411Z,7.57
2018-05-15T09:27:37.425Z,8.13
2018-05-15T09:30:04.780Z,7.77
2018-05-15T09:32:32.981Z,5.40
2018-05-15T09:35:03.339Z,6.43
2018-05-15T09:37:30.107Z,5.90
2018-05-15T09:39:57.408Z,7.37
2018-05-15T09:42:24.572Z,7.70
2018-05-15T09:44:53.600Z,5.77
2018-05-15T09:47:24.086Z,5.27
2018-05-15T09:49:54.574Z,5.33
2018-05-15T09:52:23.622Z,5.07
2018-05-15T09:54:53.919Z,7.27
2018-05-15T09:57:25.031Z,5.80
2018-05-15T09:59:55.709Z,4.93
2018-05-15T10:02:24.114Z,4.73
2018-05-15T10:04:54.688Z,5.97
2018-05-15T10:07:22.587Z,6.30
2018-05-15T10:09:51.580Z,5.43
2018-05-15T10:12:21.729Z,6.10
2018-05-15T10:14:48.527Z,8.27
2018-05-15T10:17:15.337Z,7.27
2018-05-15T10:19:47.360Z,5.40
2018-05-15T10:22:15.699Z,5.30
2018-05-15T10:24:44.104Z,4.57
2018-05-15T10:27:14.727Z,4.90
2018-05-15T10:29:44.712Z,4.30
2018-05-15T10:32:14.344Z,5.57
2018-05-15T10:34:44.291Z,6.33
2018-05-15T10:37:11.185Z,5.43
2018-05-15T10:52:38.033Z,4.30
2018-05-15T10:55:04.773Z,3.77
2018-05-15T10:57:33.172Z,9.73
2018-05-15T11:00:01.979Z,5.00
2018-05-15T11:02:28.699Z,6.60
2018-05-15T11:04:55.436Z,18.90
2018-05-15T11:07:23.259Z,9.73
2018-05-15T11:09:51.472Z,9.23
2018-05-15T11:12:18.527Z,7.53
2018-05-15T11:14:45.264Z,6.83
2018-05-15T11:17:13.540Z,6.90
2018-05-15T11:19:46.088Z,5.63
2018-05-15T11:22:22.363Z,4.10
2018-05-15T11:24:49.280Z,5.80
2018-05-15T11:27:16.487Z,4.17
2018-05-15T11:29:43.969Z,4.37
2018-05-15T11:32:12.973Z,4.10
2018-05-15T11:34:39.906Z,3.93
2018-05-15T11:37:07.019Z,5.20
2018-05-15T11:39:33.732Z,5.80
2018-05-15T11:42:00.471Z,5.50
2018-05-15T11:44:27.207Z,5.10
2018-05-15T11:46:53.936Z,5.00
2018-05-15T11:49:21.596Z,5.13
2018-05-15T11:51:48.222Z,4.17
2018-05-15T11:54:14.177Z,3.77
2018-05-15T11:56:40.927Z,8.33
2018-05-15T11:59:07.703Z,5.03
2018-05-15T12:01:34.449Z,5.27
2018-05-15T12:04:01.236Z,6.53
2018-05-15T12:06:27.964Z,5.50
2018-05-15T12:08:54.684Z,6.57
2018-05-15T12:11:21.428Z,4.57
2018-05-15T12:13:48.183Z,7.53
2018-05-15T12:16:15.123Z,4.87
2018-05-15T12:18:41.911Z,3.97
2018-05-15T12:21:08.686Z,13.03
2018-05-15T12:23:35.440Z,6.60
2018-05-15T12:26:02.183Z,4.93
2018-05-15T12:28:29.883Z,5.47
2018-05-15T12:30:56.619Z,5.17
2018-05-15T12:33:23.348Z,5.90
2018-05-15T12:35:50.103Z,6.13
2018-05-15T12:38:16.844Z,6.13
2018-05-15T12:40:43.627Z,4.23
2018-05-15T12:43:10.392Z,4.27
2018-05-15T12:45:37.131Z,3.60
2018-05-15T12:48:03.887Z,3.33
2018-05-15T12:50:30.628Z,6.80
2018-05-15T12:52:57.386Z,9.33
2018-05-15T12:55:24.124Z,6.83
2018-05-15T12:57:50.890Z,6.17
2018-05-15T13:00:17.654Z,5.70
2018-05-15T13:02:44.388Z,7.10
2018-05-15T13:05:11.127Z,6.83
2018-05-15T13:07:37.895Z,21.83
2018-05-15T13:10:04.612Z,7.33
2018-05-15T13:12:31.439Z,6.67
2018-05-15T13:14:58.267Z,7.60
2018-05-15T13:17:25.002Z,6.97
2018-05-15T13:19:51.727Z,6.23
2018-05-15T13:22:18.455Z,8.57
2018-05-15T13:24:45.230Z,6.87
2018-05-15T13:27:11.983Z,6.60
2018-05-15T13:29:38.722Z,6.47
2018-05-15T13:32:05.496Z,9.27
2018-05-15T13:34:32.234Z,7.80
2018-05-15T13:36:59.007Z,12.27
2018-05-15T13:39:25.751Z,7.50
2018-05-15T13:41:52.496Z,10.50
2018-05-15T13:44:19.248Z,8.87
2018-05-15T13:46:46.015Z,10.73
2018-05-15T13:49:12.760Z,10.40
2018-05-15T13:51:39.501Z,9.37
2018-05-15T13:54:06.813Z,9.03
2018-05-15T13:56:33.553Z,8.00
2018-05-15T13:59:00.335Z,12.17
2018-05-15T14:01:27.129Z,12.00
2018-05-15T14:03:53.889Z,8.40
2018-05-15T14:06:20.959Z,8.60
2018-05-15T14:08:47.740Z,7.63
2018-05-15T14:11:14.529Z,7.50
2018-05-15T14:13:41.291Z,7.10
2018-05-15T14:16:08.066Z,7.67
2018-05-15T14:18:34.901Z,8.00
2018-05-15T14:21:01.699Z,8.17
2018-05-15T14:23:28.443Z,7.03
2018-05-15T14:25:55.211Z,7.17
2018-05-15T14:28:22.895Z,10.03
2018-05-15T14:30:49.652Z,11.57
2018-05-15T14:33:16.429Z,7.70
2018-05-15T14:35:43.260Z,8.77
2018-05-15T14:38:10.051Z,10.03
2018-05-15T14:40:36.797Z,8.13
2018-05-15T14:43:10.265Z,8.20
2018-05-15T14:45:36.916Z,7.80
2018-05-15T14:48:03.712Z,8.63
2018-05-15T14:50:30.491Z,10.07
2018-05-15T14:52:57.246Z,9.33
2018-05-15T14:55:23.993Z,10.10
2018-05-15T14:57:50.755Z,10.40
2018-05-15T15:00:17.601Z,11.33
2018-05-15T15:02:44.385Z,10.83
2018-05-15T15:05:11.138Z,11.37
2018-05-15T15:07:37.889Z,11.50
2018-05-15T15:10:04.661Z,9.33
2018-05-15T15:12:31.416Z,7.33
2018-05-15T15:14:58.209Z,8.23
2018-05-15T15:17:26.052Z,12.33
2018-05-15T15:19:52.772Z,7.03
2018-05-15T15:22:19.601Z,8.37
2018-05-15T15:27:14.811Z,24.63
2018-05-15T15:29:41.543Z,8.93
2018-05-15T15:32:19.092Z,8.17
2018-05-15T15:34:45.920Z,6.03
2018-05-15T15:37:12.689Z,10.13
2018-05-15T15:39:39.475Z,7.60
2018-05-15T15:42:06.254Z,7.53
2018-05-15T15:44:33.004Z,7.57
2018-05-15T15:46:59.778Z,8.57
2018-05-15T15:49:26.593Z,7.57
2018-05-15T15:51:53.417Z,9.13
2018-05-15T15:54:20.230Z,6.60
2018-05-15T15:56:47.009Z,5.10
2018-05-15T15:59:14.510Z,6.13
2018-05-15T16:01:41.282Z,5.80
2018-05-15T16:04:08.286Z,5.97
2018-05-15T16:06:35.040Z,5.80
2018-05-15T16:09:02.258Z,5.40
2018-05-15T16:11:29.057Z,5.17
2018-05-15T16:13:55.786Z,5.33
2018-05-15T16:16:22.541Z,5.77
2018-05-15T16:18:49.324Z,8.07
2018-05-15T16:21:16.113Z,6.07
2018-05-15T16:23:42.883Z,7.93
2018-05-15T16:26:09.684Z,7.17
2018-05-15T16:28:36.619Z,7.90
2018-05-15T16:31:03.364Z,10.60
2018-05-15T16:33:30.129Z,7.00
2018-05-15T16:35:56.909Z,9.20
2018-05-15T16:38:23.697Z,6.50
2018-05-15T16:40:51.507Z,7.40
2018-05-15T16:43:18.302Z,6.80
2018-05-15T16:45:45.081Z,7.60
2018-05-15T16:48:11.861Z,6.57
2018-05-15T16:50:38.639Z,6.37
2018-05-15T16:53:05.425Z,6.07
2018-05-15T16:55:32.229Z,6.33
2018-05-15T16:57:59.789Z,8.97
2018-05-15T17:00:26.553Z,6.57
2018-05-15T17:02:53.358Z,7.37
2018-05-15T17:05:20.122Z,8.93
2018-05-15T17:07:47.019Z,6.27
2018-05-15T17:10:14.575Z,6.70
2018-05-15T17:12:41.347Z,6.60
2018-05-15T17:15:08.181Z,6.63
2018-05-15T17:17:34.944Z,6.73
2018-05-15T17:20:01.685Z,7.77
2018-05-15T17:22:28.506Z,8.63
2018-05-15T17:24:55.642Z,23.80
2018-05-15T17:27:22.414Z,23.43
2018-05-15T17:29:49.161Z,36.53
2018-05-15T17:32:15.973Z,27.77
2018-05-15T17:34:42.735Z,26.57
2018-05-15T17:37:09.495Z,26.03
2018-05-15T17:39:36.273Z,18.83
2018-05-15T17:42:03.035Z,12.93
2018-05-15T17:44:29.911Z,21.47
2018-05-15T17:46:56.711Z,14.77
2018-05-15T17:49:24.101Z,12.67
2018-05-15T17:51:50.891Z,11.70
2018-05-15T17:54:17.804Z,14.33
2018-05-15T17:56:44.574Z,15.27
2018-05-15T17:59:11.392Z,14.43
2018-05-15T18:01:38.178Z,12.87
2018-05-15T18:04:04.942Z,12.33
2018-05-15T18:06:31.688Z,10.67
2018-05-15T18:08:58.453Z,12.37
2018-05-15T18:11:25.205Z,29.60
2018-05-15T18:13:51.972Z,31.47
2018-05-15T18:16:18.749Z,44.20
2018-05-15T18:18:45.592Z,28.87
2018-05-15T18:21:12.399Z,20.00
2018-05-15T18:23:39.909Z,14.77
2018-05-15T18:26:06.657Z,12.97
2018-05-15T18:28:33.419Z,21.40
2018-05-15T18:31:00.219Z,23.53
2018-05-15T18:33:27.678Z,44.77
2018-05-15T18:35:54.506Z,46.13
2018-05-15T18:38:21.289Z,63.10
2018-05-15T18:40:48.054Z,18.87
2018-05-15T18:43:14.947Z,20.10
2018-05-15T18:45:41.709Z,17.90
2018-05-15T18:48:09.377Z,15.80
2018-05-15T18:50:36.165Z,18.37
2018-05-15T18:53:02.919Z,22.30
2018-05-15T18:55:29.680Z,13.83
2018-05-15T18:57:57.049Z,14.63
2018-05-15T19:00:24.567Z,17.50
2018-05-15T19:02:51.376Z,19.50
2018-05-15T19:05:18.174Z,17.00
2018-05-15T19:07:45.087Z,17.67
2018-05-15T19:10:11.865Z,16.40
2018-05-15T19:12:38.641Z,15.33
2018-05-15T19:15:05.489Z,18.43
2018-05-15T19:17:32.322Z,18.17
2018-05-15T19:19:59.193Z,22.83
2018-05-15T19:22:25.976Z,15.23
2018-05-15T19:24:52.797Z,19.40
2018-05-15T19:27:19.643Z,15.97
2018-05-15T19:29:47.686Z,16.40
2018-05-15T19:32:18.897Z,15.70
2018-05-15T19:34:51.526Z,19.30
2018-05-15T19:37:19.245Z,15.83
2018-05-15T19:39:46.679Z,18.93
2018-05-15T19:42:13.779Z,23.37
2018-05-15T19:44:42.169Z,17.80
2018-05-15T19:47:11.365Z,18.03
2018-05-15T19:49:40.324Z,16.80
2018-05-15T19:52:16.366Z,19.30
2018-05-15T19:54:44.495Z,18.67
2018-05-15T19:57:12.365Z,21.40
2018-05-15T19:59:40.036Z,18.90
2018-05-15T20:02:07.004Z,18.63
2018-05-15T20:04:34.441Z,21.90
2018-05-15T20:07:01.480Z,22.03
2018-05-15T20:09:28.250Z,19.63
2018-05-15T20:11:55.331Z,21.30
2018-05-15T20:14:23.379Z,22.10
2018-05-15T20:16:50.822Z,18.87
2018-05-15T20:19:17.639Z,20.23
2018-05-15T20:21:44.396Z,17.83
2018-05-15T20:24:11.187Z,21.13
2018-05-15T20:26:38.030Z,20.10
2018-05-15T20:29:04.954Z,20.23
2018-05-15T20:31:31.716Z,20.37
2018-05-15T20:33:59.584Z,21.03
2018-05-15T20:36:27.735Z,19.83
2018-05-15T20:38:55.095Z,18.70
2018-05-15T20:41:21.981Z,19.67
2018-05-15T20:43:49.055Z,18.93
2018-05-15T20:46:15.896Z,23.20
2018-05-15T20:48:43.001Z,20.10
2018-05-15T20:51:09.825Z,22.10
2018-05-15T20:53:36.895Z,21.87
2018-05-15T20:56:03.840Z,24.33
2018-05-15T20:58:31.657Z,24.80
2018-05-15T21:00:58.489Z,25.07
2018-05-15T21:03:25.449Z,24.90
2018-05-15T21:05:53.133Z,24.87
2018-05-15T21:08:20.260Z,24.23
2018-05-15T21:10:47.032Z,24.00
2018-05-15T21:13:14.624Z,23.77
2018-05-15T21:15:41.434Z,25.13
2018-05-15T21:18:08.270Z,24.43
2018-05-15T21:20:35.975Z,27.87
2018-05-15T21:23:02.788Z,25.10
2018-05-15T21:25:29.546Z,30.03
2018-05-15T21:27:56.800Z,23.93
2018-05-15T21:30:23.635Z,23.83
2018-05-15T21:32:52.591Z,23.47
2018-05-15T21:35:20.316Z,17.17
2018-05-15T21:37:47.128Z,19.97
2018-05-15T21:40:15.334Z,19.33
2018-05-15T21:42:42.679Z,19.47
2018-05-15T21:45:10.229Z,21.10
2018-05-15T21:47:39.639Z,17.60
2018-05-15T21:50:06.445Z,17.93
2018-05-15T21:52:33.316Z,19.30
2018-05-15T21:55:00.205Z,18.63
2018-05-15T21:57:27.269Z,17.90
2018-05-15T21:59:54.908Z,19.77
2018-05-15T22:02:21.663Z,19.03
2018-05-15T22:04:49.856Z,21.13
2018-05-15T22:07:17.385Z,17.63
2018-05-15T22:09:44.133Z,20.17
2018-05-15T22:12:16.944Z,19.40
2018-05-15T22:14:49.649Z,17.63
2018-05-15T22:17:22.618Z,15.67
2018-05-15T22:19:55.245Z,19.43
2018-05-15T22:22:21.783Z,17.83
2018-05-15T22:24:48.532Z,15.70
2018-05-15T22:27:15.356Z,16.87
2018-05-15T22:29:42.216Z,16.03
2018-05-15T22:32:08.979Z,18.03
2018-05-15T22:34:35.754Z,17.70
2018-05-15T22:37:02.529Z,18.07
2018-05-15T22:39:29.316Z,21.07
2018-05-15T22:41:56.081Z,18.47
2018-05-15T22:44:22.848Z,17.60
2018-05-15T22:46:49.620Z,20.50
2018-05-15T22:49:16.381Z,18.43
2018-05-15T22:51:43.160Z,20.00
2018-05-15T22:54:09.970Z,19.47
2018-05-15T22:56:36.744Z,25.00
2018-05-15T22:59:03.546Z,21.07
2018-05-15T23:01:30.325Z,21.40
2018-05-15T23:03:57.118Z,27.50
2018-05-15T23:06:23.987Z,23.93
2018-05-15T23:08:50.776Z,21.33
2018-05-15T23:11:17.952Z,23.03
2018-05-15T23:13:44.783Z,21.83
2018-05-15T23:16:11.529Z,23.00
2018-05-15T23:18:39.004Z,21.67
2018-05-15T23:21:06.568Z,25.33
2018-05-15T23:23:33.380Z,23.50
2018-05-15T23:26:00.512Z,23.33
2018-05-15T23:28:27.300Z,22.73
2018-05-15T23:30:54.069Z,29.47
2018-05-15T23:33:20.829Z,31.50
2018-05-15T23:35:47.610Z,30.80
2018-05-15T23:38:14.368Z,27.57
2018-05-15T23:40:41.147Z,23.87
2018-05-15T23:43:07.913Z,27.03
2018-05-15T23:45:34.755Z,29.43
2018-05-15T23:48:01.525Z,27.50
2018-05-15T23:50:28.310Z,29.67
2018-05-15T23:52:55.093Z,29.30
2018-05-15T23:55:21.902Z,33.40
2018-05-15T23:57:48.833Z,35.40
